Time;durP1;ratioP1;P1;durP2;ratioP2;P2;SDS_P1;SDS_P2;PMS_P1;PMS_P2;Temp;Humidity;BMP_temperature;BMP_pressure;BME280_temperature;BME280_humidity;BME280_pressure;Samples;Min_cycle;Max_cycle;Signal;HPM_P1;HPM_P2
2022/04/25 08:00:21;;;;;;;2.63;1.90;;;;;;;;;;6151356;23;21709;-84
2022/04/25 10:13:50;;;;;;;3.28;2.72;;;;;;;;;;6164223;23;20087;-87
2022/04/25 10:16:22;;;;;;;3.10;2.80;;;;;;;;;;6189669;23;20391;-86
2022/04/25 10:18:48;;;;;;;3.60;2.60;;;;;;;;;;6216552;23;20009;-90
2022/04/25 10:21:14;;;;;;;3.67;2.42;;;;;;;;;;6190207;23;20327;-87
2022/04/25 10:23:41;;;;;;;3.67;3.10;;;;;;;;;;6191528;23;20014;-86
2022/04/25 10:26:06;;;;;;;3.63;3.30;;;;;;;;;;6219667;23;20071;-86
2022/04/25 10:28:36;;;;;;;4.70;3.55;;;;;;;;;;6192854;23;20051;-85
2022/04/25 10:31:13;;;;;;;3.85;3.05;;;;;;;;;;6221048;23;20011;-88
2022/04/25 10:34:05;;;;;;;2.97;2.67;;;;;;;;;;6195703;23;20415;-87
2022/04/25 10:36:37;;;;;;;3.05;2.80;;;;;;;;;;6187051;23;20012;-89
2022/04/25 10:39:24;;;;;;;2.75;2.53;;;;;;;;;;6219867;23;20004;-90
2022/04/25 10:44:36;;;;;;;3.40;3.10;;;;;;;;;;6219827;23;20120;-90
2022/04/25 10:47:05;;;;;;;3.28;2.97;;;;;;;;;;6193692;23;20427;-89
2022/04/25 10:49:47;;;;;;;2.80;2.60;;;;;;;;;;6193621;23;20011;-91
2022/04/25 10:52:31;;;;;;;2.83;2.63;;;;;;;;;;6193471;23;20335;-86
2022/04/25 10:55:30;;;;;;;2.50;2.30;;;;;;;;;;6193333;23;20024;-87
2022/04/25 10:58:01;;;;;;;2.42;2.22;;;;;;;;;;6192839;23;20308;-87
2022/04/25 11:00:44;;;;;;;2.58;2.25;;;;;;;;;;6219914;23;20073;-86
2022/04/25 11:03:20;;;;;;;2.30;1.92;;;;;;;;;;6219192;23;20012;-83
2022/04/25 11:05:50;;;;;;;2.80;2.60;;;;;;;;;;6219167;23;20363;-84
2022/04/25 11:08:18;;;;;;;2.35;2.10;;;;;;;;;;6219124;23;20416;-84
2022/04/25 11:10:57;;;;;;;3.78;2.30;;;;;;;;;;6219500;23;20008;-83
2022/04/25 11:13:25;;;;;;;2.50;2.30;;;;;;;;;;6219099;23;20087;-86
2022/04/25 11:15:53;;;;;;;2.67;2.38;;;;;;;;;;6219141;23;20005;-85
2022/04/25 11:18:28;;;;;;;4.03;2.72;;;;;;;;;;6219057;23;20058;-85
2022/04/25 11:21:04;;;;;;;2.80;2.50;;;;;;;;;;6219220;23;20414;-84
2022/04/25 11:23:31;;;;;;;3.15;2.60;;;;;;;;;;6192258;23;20005;-84
2022/04/25 11:25:59;;;;;;;3.97;2.92;;;;;;;;;;6219242;23;20371;-84
2022/04/25 11:28:26;;;;;;;2.95;2.53;;;;;;;;;;6219033;23;20004;-84
2022/04/25 11:31:13;;;;;;;3.00;2.70;;;;;;;;;;6219218;23;20028;-84
2022/04/25 11:33:46;;;;;;;3.55;3.10;;;;;;;;;;6219134;23;20058;-84
2022/04/25 11:36:13;;;;;;;4.35;3.40;;;;;;;;;;6217773;23;20051;-84
2022/04/25 11:41:23;;;;;;;3.60;3.08;;;;;;;;;;6217545;23;20039;-84
2022/04/25 11:43:49;;;;;;;5.38;3.65;;;;;;;;;;6190467;23;20332;-84
2022/04/25 11:46:16;;;;;;;3.30;3.00;;;;;;;;;;6217443;23;20054;-84
2022/04/25 11:48:41;;;;;;;3.20;2.97;;;;;;;;;;6190651;23;20015;-84
2022/04/25 11:51:07;;;;;;;4.97;3.35;;;;;;;;;;6190649;23;20008;-84
2022/04/25 11:53:33;;;;;;;3.70;2.90;;;;;;;;;;6217269;23;20071;-84
2022/04/25 11:56:01;;;;;;;3.35;3.05;;;;;;;;;;6191498;23;20400;-85
2022/04/25 11:58:30;;;;;;;3.15;2.45;;;;;;;;;;6190611;23;20074;-85
2022/04/25 12:00:56;;;;;;;;;;;;;;;;;;6217763;23;20040;-84
2022/04/25 12:03:24;;;;;;;4.35;3.67;;;;;;;;;;6217127;23;20230;-84
2022/04/25 12:05:50;;;;;;;3.03;2.72;;;;;;;;;;6217168;23;20055;-84
2022/04/25 12:16:37;;;;;;;4.35;3.22;;;;;;;;;;6217408;23;20028;-84
2022/04/25 12:19:06;;;;;;;4.07;3.65;;;;;;;;;;6216933;23;20092;-84
2022/04/25 12:21:34;;;;;;;3.58;3.28;;;;;;;;;;6190483;23;20004;-85
2022/04/25 12:24:00;;;;;;;3.72;3.42;;;;;;;;;;6217134;23;20008;-85
2022/04/25 12:26:29;;;;;;;3.53;3.05;;;;;;;;;;6217000;23;20107;-85
2022/04/25 12:29:00;;;;;;;3.50;3.30;;;;;;;;;;6216817;23;20004;-86
2022/04/25 12:31:36;;;;;;;3.85;3.28;;;;;;;;;;6190360;23;20008;-86
2022/04/25 12:34:07;;;;;;;3.80;3.40;;;;;;;;;;6217178;23;20005;-85
2022/04/25 12:36:32;;;;;;;3.00;2.70;;;;;;;;;;6190188;23;20328;-86
2022/04/25 12:39:00;;;;;;;3.60;3.08;;;;;;;;;;6190237;23;20079;-86
2022/04/25 12:41:36;;;;;;;5.03;3.03;;;;;;;;;;6216918;23;20039;-85
2022/04/25 12:44:11;;;;;;;3.50;2.95;;;;;;;;;;6216777;23;20424;-85
2022/04/25 12:46:58;;;;;;;4.07;2.83;;;;;;;;;;6216446;23;20001;-83
2022/04/25 12:49:43;;;;;;;5.18;2.42;;;;;;;;;;6216968;23;20000;-84
2022/04/25 12:52:12;;;;;;;3.63;2.38;;;;;;;;;;6216938;23;20009;-84
2022/04/25 12:54:41;;;;;;;2.75;2.47;;;;;;;;;;6216767;23;20004;-85
2022/04/25 15:12:22;;;;;;;9.15;7.05;;;;;;;;;;6188941;23;20008;-86
2022/04/25 15:14:47;;;;;;;11.15;7.72;;;;;;;;;;6218102;23;20435;-80
2022/04/25 15:17:13;;;;;;;11.25;8.93;;;;;;;;;;6218164;23;20482;-87
2022/04/25 15:19:38;;;;;;;11.18;9.77;;;;;;;;;;6191006;23;20011;-86
2022/04/25 15:22:04;;;;;;;12.70;9.77;;;;;;;;;;6217861;23;20100;-86
2022/04/25 15:24:29;;;;;;;10.73;9.50;;;;;;;;;;6217749;23;20016;-86
2022/04/25 15:26:55;;;;;;;15.50;8.93;;;;;;;;;;6217898;23;20011;-86
2022/04/25 15:29:21;;;;;;;11.50;9.77;;;;;;;;;;6217645;23;20005;-86
2022/04/25 15:31:46;;;;;;;12.93;10.98;;;;;;;;;;6219300;23;20055;-83
2022/04/25 15:34:12;;;;;;;14.05;11.18;;;;;;;;;;6218038;23;20066;-85
2022/04/25 15:36:37;;;;;;;14.57;11.80;;;;;;;;;;6217851;23;20000;-84
2022/04/25 15:39:02;;;;;;;13.30;11.15;;;;;;;;;;6217336;23;20356;-85
2022/04/25 15:41:28;;;;;;;13.88;10.75;;;;;;;;;;6217903;23;20011;-84
2022/04/25 15:43:53;;;;;;;15.00;11.98;;;;;;;;;;6217542;23;20008;-85
2022/04/25 15:46:19;;;;;;;12.68;10.95;;;;;;;;;;6217494;23;20063;-86
2022/04/25 15:48:44;;;;;;;14.20;11.00;;;;;;;;;;6217132;23;20004;-84
2022/04/25 15:51:09;;;;;;;14.25;11.43;;;;;;;;;;6217311;23;20007;-87
2022/04/25 15:59:05;;;;;;;12.93;9.23;;;;;;;;;;6217381;23;20019;-83
2022/04/25 16:01:30;;;;;;;11.23;10.02;;;;;;;;;;6217418;23;20007;-87
2022/04/25 16:03:57;;;;;;;12.82;10.60;;;;;;;;;;6217382;23;20009;-85
2022/04/25 16:06:26;;;;;;;10.68;8.77;;;;;;;;;;6217505;23;20071;-87
2022/04/25 16:08:51;;;;;;;11.10;9.90;;;;;;;;;;6217264;23;20004;-86
2022/04/25 16:11:17;;;;;;;14.20;9.73;;;;;;;;;;6217248;23;20100;-86
2022/04/25 16:13:43;;;;;;;14.15;11.38;;;;;;;;;;6217448;23;20004;-85
2022/04/25 16:16:08;;;;;;;12.48;9.43;;;;;;;;;;6217939;23;20058;-86
2022/04/25 16:18:34;;;;;;;12.43;10.75;;;;;;;;;;6216821;23;20000;-87
2022/04/25 16:21:02;;;;;;;13.23;10.23;;;;;;;;;;6242059;23;20074;-85
2022/04/25 16:23:40;;;;;;;13.27;11.55;;;;;;;;;;6229260;23;20030;-88
2022/04/25 16:26:06;;;;;;;14.75;12.10;;;;;;;;;;6227232;23;20011;-88
2022/04/25 16:28:32;;;;;;;12.90;11.55;;;;;;;;;;6237057;23;20017;-94
2022/04/25 16:30:58;;;;;;;16.48;12.82;;;;;;;;;;6218271;23;20011;-86
2022/04/25 16:33:27;;;;;;;14.80;11.23;;;;;;;;;;6217073;23;20001;-87
2022/04/25 16:35:53;;;;;;;12.35;10.80;;;;;;;;;;6217143;23;20000;-85
2022/04/25 16:38:18;;;;;;;13.20;11.88;;;;;;;;;;6216671;23;20031;-85
2022/04/25 16:40:44;;;;;;;13.80;11.13;;;;;;;;;;6221435;23;20331;-88
2022/04/25 16:43:09;;;;;;;14.82;11.98;;;;;;;;;;6219219;23;20008;-86
2022/04/25 16:45:35;;;;;;;12.52;10.77;;;;;;;;;;6191885;23;20008;-86
2022/04/25 16:48:01;;;;;;;13.52;11.30;;;;;;;;;;6217116;23;20315;-87
2022/04/25 16:50:27;;;;;;;14.38;11.10;;;;;;;;;;6216561;23;20001;-87
2022/04/25 16:52:55;;;;;;;14.13;11.35;;;;;;;;;;6190042;23;20013;-85
2022/04/25 16:55:21;;;;;;;13.93;12.02;;;;;;;;;;6217084;23;20005;-85
2022/04/25 16:57:46;;;;;;;13.60;10.63;;;;;;;;;;6216940;23;20007;-85
2022/04/25 17:00:12;;;;;;;12.63;11.13;;;;;;;;;;6216702;23;20013;-85
2022/04/25 17:02:39;;;;;;;13.65;11.98;;;;;;;;;;6216697;23;20124;-87
2022/04/25 17:05:05;;;;;;;14.48;11.40;;;;;;;;;;6190558;23;20005;-88
2022/04/25 17:07:31;;;;;;;16.52;12.35;;;;;;;;;;6216734;23;20008;-87
2022/04/25 17:09:57;;;;;;;12.75;10.30;;;;;;;;;;6190108;23;20478;-84
2022/04/25 17:12:22;;;;;;;12.82;11.32;;;;;;;;;;6216479;23;20001;-88
2022/04/25 17:14:48;;;;;;;12.52;11.23;;;;;;;;;;6216718;23;20332;-85
2022/04/25 17:17:15;;;;;;;11.50;10.30;;;;;;;;;;6216801;23;20451;-87
2022/04/25 17:19:41;;;;;;;12.95;10.73;;;;;;;;;;6216342;23;20013;-89
2022/04/25 17:22:07;;;;;;;14.35;12.05;;;;;;;;;;6216794;23;20011;-90
2022/04/25 17:24:32;;;;;;;18.10;13.25;;;;;;;;;;6217268;23;20008;-87
2022/04/25 17:26:58;;;;;;;14.02;12.52;;;;;;;;;;6216757;23;20000;-87
2022/04/25 17:29:23;;;;;;;15.07;12.32;;;;;;;;;;6217948;23;20437;-88
